sensor_id;sensor_type;location;lat;lon;timestamp;pressure;altitude;pressure_sealevel;temperature;humidity
16738;BME280;17906;47.684;10.806;2022-12-17T00:00:09;93182.56;;;-5.57;100.00
16738;BME280;17906;47.684;10.806;2022-12-17T00:02:56;93180.75;;;-5.57;100.00
16738;BME280;17906;47.684;10.806;2022-12-17T00:05:40;93178.94;;;-5.56;100.00
16738;BME280;17906;47.684;10.806;2022-12-17T00:08:24;93179.63;;;-5.54;100.00
16738;BME280;17906;47.684;10.806;2022-12-17T00:11:10;93181.28;;;-5.53;100.00
16738;BME280;17906;47.684;10.806;2022-12-17T00:13:54;93188.38;;;-5.54;100.00
16738;BME280;17906;47.684;10.806;2022-12-17T00:16:38;93192.28;;;-5.58;100.00
16738;BME280;17906;47.684;10.806;2022-12-17T00:19:23;93193.13;;;-5.57;100.00
16738;BME280;17906;47.684;10.806;2022-12-17T00:22:07;93196.56;;;-5.39;100.00
16738;BME280;17906;47.684;10.806;2022-12-17T00:24:51;93202.44;;;-5.45;100.00
16738;BME280;17906;47.684;10.806;2022-12-17T00:27:37;93204.97;;;-5.43;100.00
16738;BME280;17906;47.684;10.806;2022-12-17T00:30:21;93203.81;;;-5.41;100.00
16738;BME280;17906;47.684;10.806;2022-12-17T00:33:14;93209.28;;;-5.34;100.00
16738;BME280;17906;47.684;10.806;2022-12-17T00:35:58;93209.53;;;-5.28;100.00
16738;BME280;17906;47.684;10.806;2022-12-17T00:38:43;93211.03;;;-5.25;100.00
16738;BME280;17906;47.684;10.806;2022-12-17T00:41:27;93216.94;;;-5.31;100.00
16738;BME280;17906;47.684;10.806;2022-12-17T00:44:21;93209.09;;;-5.23;100.00
16738;BME280;17906;47.684;10.806;2022-12-17T00:47:06;93224.06;;;-5.24;100.00
16738;BME280;17906;47.684;10.806;2022-12-17T00:49:50;93223.13;;;-5.23;100.00
16738;BME280;17906;47.684;10.806;2022-12-17T00:52:34;93228.19;;;-5.29;100.00
16738;BME280;17906;47.684;10.806;2022-12-17T00:55:18;93229.16;;;-5.30;100.00
16738;BME280;17906;47.684;10.806;2022-12-17T00:58:03;93227.28;;;-5.38;100.00
16738;BME280;17906;47.684;10.806;2022-12-17T01:00:49;93235.34;;;-5.39;100.00
16738;BME280;17906;47.684;10.806;2022-12-17T01:03:33;93232.13;;;-5.33;100.00
16738;BME280;17906;47.684;10.806;2022-12-17T01:06:17;93225.28;;;-5.18;100.00
16738;BME280;17906;47.684;10.806;2022-12-17T01:09:01;93242.94;;;-5.18;100.00
16738;BME280;17906;47.684;10.806;2022-12-17T01:11:46;93250.56;;;-5.15;100.00
16738;BME280;17906;47.684;10.806;2022-12-17T01:14:35;93260.53;;;-5.09;100.00
16738;BME280;17906;47.684;10.806;2022-12-17T01:17:21;93256.50;;;-5.13;100.00
16738;BME280;17906;47.684;10.806;2022-12-17T01:20:06;93254.50;;;-5.19;100.00
16738;BME280;17906;47.684;10.806;2022-12-17T01:22:50;93261.97;;;-5.15;100.00
16738;BME280;17906;47.684;10.806;2022-12-17T01:25:34;93267.56;;;-5.18;100.00
16738;BME280;17906;47.684;10.806;2022-12-17T01:28:21;93270.81;;;-5.24;100.00
16738;BME280;17906;47.684;10.806;2022-12-17T01:31:05;93273.31;;;-5.23;100.00
16738;BME280;17906;47.684;10.806;2022-12-17T01:33:50;93279.28;;;-5.20;100.00
16738;BME280;17906;47.684;10.806;2022-12-17T01:36:35;93276.09;;;-5.24;100.00
16738;BME280;17906;47.684;10.806;2022-12-17T01:39:19;93280.28;;;-5.13;100.00
16738;BME280;17906;47.684;10.806;2022-12-17T01:42:03;93276.66;;;-5.12;100.00
16738;BME280;17906;47.684;10.806;2022-12-17T01:44:51;93280.69;;;-5.26;100.00
16738;BME280;17906;47.684;10.806;2022-12-17T01:47:38;93281.38;;;-5.24;100.00
16738;BME280;17906;47.684;10.806;2022-12-17T01:50:43;93283.50;;;-5.28;100.00
16738;BME280;17906;47.684;10.806;2022-12-17T01:53:31;93288.38;;;-5.15;100.00
16738;BME280;17906;47.684;10.806;2022-12-17T01:56:17;93294.88;;;-5.27;100.00
16738;BME280;17906;47.684;10.806;2022-12-17T01:59:02;93299.56;;;-5.21;100.00
16738;BME280;17906;47.684;10.806;2022-12-17T02:01:47;93293.50;;;-5.13;100.00
16738;BME280;17906;47.684;10.806;2022-12-17T02:04:31;93297.38;;;-5.26;100.00
16738;BME280;17906;47.684;10.806;2022-12-17T02:07:27;93289.41;;;-5.34;100.00
16738;BME280;17906;47.684;10.806;2022-12-17T02:10:20;93300.78;;;-5.33;100.00
16738;BME280;17906;47.684;10.806;2022-12-17T02:13:11;93306.81;;;-5.41;100.00
16738;BME280;17906;47.684;10.806;2022-12-17T02:16:00;93311.34;;;-5.51;100.00
16738;BME280;17906;47.684;10.806;2022-12-17T02:18:50;93305.09;;;-5.50;100.00
16738;BME280;17906;47.684;10.806;2022-12-17T02:21:38;93316.31;;;-5.48;100.00
16738;BME280;17906;47.684;10.806;2022-12-17T02:24:31;93309.63;;;-5.42;100.00
16738;BME280;17906;47.684;10.806;2022-12-17T02:27:21;93317.38;;;-5.41;100.00
16738;BME280;17906;47.684;10.806;2022-12-17T02:30:11;93317.38;;;-5.41;100.00
16738;BME280;17906;47.684;10.806;2022-12-17T02:32:55;93310.72;;;-5.45;100.00
16738;BME280;17906;47.684;10.806;2022-12-17T02:35:43;93310.72;;;-5.45;100.00
16738;BME280;17906;47.684;10.806;2022-12-17T02:38:30;93314.28;;;-5.54;100.00
16738;BME280;17906;47.684;10.806;2022-12-17T02:41:16;93313.69;;;-5.48;100.00
16738;BME280;17906;47.684;10.806;2022-12-17T02:47:31;93311.44;;;-5.43;100.00
16738;BME280;17906;47.684;10.806;2022-12-17T02:50:16;93313.03;;;-5.32;100.00
16738;BME280;17906;47.684;10.806;2022-12-17T02:53:01;93313.78;;;-5.22;100.00
16738;BME280;17906;47.684;10.806;2022-12-17T02:55:46;93320.88;;;-5.23;100.00
16738;BME280;17906;47.684;10.806;2022-12-17T02:58:30;93324.09;;;-5.29;100.00
16738;BME280;17906;47.684;10.806;2022-12-17T03:01:14;93314.38;;;-5.28;100.00
16738;BME280;17906;47.684;10.806;2022-12-17T03:04:01;93322.53;;;-5.22;100.00
16738;BME280;17906;47.684;10.806;2022-12-17T03:06:46;93324.84;;;-5.18;100.00
16738;BME280;17906;47.684;10.806;2022-12-17T03:09:30;93329.22;;;-5.27;100.00
16738;BME280;17906;47.684;10.806;2022-12-17T03:12:29;93330.53;;;-5.31;100.00
16738;BME280;17906;47.684;10.806;2022-12-17T03:15:13;93337.63;;;-5.32;100.00
16738;BME280;17906;47.684;10.806;2022-12-17T03:18:03;93330.38;;;-5.30;100.00
16738;BME280;17906;47.684;10.806;2022-12-17T03:21:00;93338.97;;;-5.28;100.00
16738;BME280;17906;47.684;10.806;2022-12-17T03:23:44;93347.06;;;-5.11;100.00
16738;BME280;17906;47.684;10.806;2022-12-17T03:26:43;93340.56;;;-5.17;100.00
16738;BME280;17906;47.684;10.806;2022-12-17T03:29:27;93354.00;;;-5.10;100.00
16738;BME280;17906;47.684;10.806;2022-12-17T03:32:12;93341.66;;;-5.02;100.00
16738;BME280;17906;47.684;10.806;2022-12-17T03:34:56;93339.19;;;-5.03;100.00
16738;BME280;17906;47.684;10.806;2022-12-17T03:37:41;93340.56;;;-4.99;100.00
16738;BME280;17906;47.684;10.806;2022-12-17T03:40:25;93352.53;;;-4.87;100.00
16738;BME280;17906;47.684;10.806;2022-12-17T03:43:10;93347.09;;;-4.85;100.00
16738;BME280;17906;47.684;10.806;2022-12-17T03:45:56;93352.16;;;-4.92;100.00
16738;BME280;17906;47.684;10.806;2022-12-17T03:48:40;93364.47;;;-4.83;100.00
16738;BME280;17906;47.684;10.806;2022-12-17T03:51:24;93361.38;;;-4.96;100.00
16738;BME280;17906;47.684;10.806;2022-12-17T03:54:10;93356.94;;;-5.13;100.00
16738;BME280;17906;47.684;10.806;2022-12-17T03:56:54;93349.97;;;-5.14;100.00
16738;BME280;17906;47.684;10.806;2022-12-17T03:59:38;93354.66;;;-5.26;100.00
16738;BME280;17906;47.684;10.806;2022-12-17T04:02:22;93355.13;;;-5.31;100.00
16738;BME280;17906;47.684;10.806;2022-12-17T04:05:07;93366.72;;;-5.24;100.00
16738;BME280;17906;47.684;10.806;2022-12-17T04:07:51;93368.31;;;-5.13;100.00
16738;BME280;17906;47.684;10.806;2022-12-17T04:10:38;93372.34;;;-5.09;100.00
16738;BME280;17906;47.684;10.806;2022-12-17T04:13:22;93368.63;;;-4.98;99.69
16738;BME280;17906;47.684;10.806;2022-12-17T04:16:06;93375.50;;;-5.05;100.00
16738;BME280;17906;47.684;10.806;2022-12-17T04:18:51;93384.13;;;-5.21;100.00
16738;BME280;17906;47.684;10.806;2022-12-17T04:21:35;93382.22;;;-5.29;100.00
16738;BME280;17906;47.684;10.806;2022-12-17T04:24:19;93387.81;;;-5.32;100.00
16738;BME280;17906;47.684;10.806;2022-12-17T04:27:05;93390.00;;;-5.27;100.00
16738;BME280;17906;47.684;10.806;2022-12-17T04:29:49;93391.22;;;-5.22;100.00
16738;BME280;17906;47.684;10.806;2022-12-17T04:32:33;93398.44;;;-5.24;100.00
16738;BME280;17906;47.684;10.806;2022-12-17T04:35:17;93403.44;;;-5.20;100.00
16738;BME280;17906;47.684;10.806;2022-12-17T04:38:02;93403.06;;;-5.26;100.00
16738;BME280;17906;47.684;10.806;2022-12-17T04:40:51;93413.25;;;-5.13;100.00
16738;BME280;17906;47.684;10.806;2022-12-17T04:43:38;93403.00;;;-4.98;100.00
16738;BME280;17906;47.684;10.806;2022-12-17T04:46:22;93411.84;;;-4.89;99.53
16738;BME280;17906;47.684;10.806;2022-12-17T04:49:06;93414.91;;;-4.94;100.00
16738;BME280;17906;47.684;10.806;2022-12-17T04:51:50;93410.53;;;-5.03;100.00
16738;BME280;17906;47.684;10.806;2022-12-17T04:54:34;93425.63;;;-5.13;99.69
16738;BME280;17906;47.684;10.806;2022-12-17T04:57:19;93420.44;;;-5.23;100.00
16738;BME280;17906;47.684;10.806;2022-12-17T05:00:05;93423.34;;;-5.26;100.00
16738;BME280;17906;47.684;10.806;2022-12-17T05:02:49;93428.22;;;-5.22;100.00
16738;BME280;17906;47.684;10.806;2022-12-17T05:05:34;93434.31;;;-5.21;100.00
16738;BME280;17906;47.684;10.806;2022-12-17T05:08:18;93444.28;;;-5.15;100.00
16738;BME280;17906;47.684;10.806;2022-12-17T05:11:02;93439.59;;;-5.21;100.00
16738;BME280;17906;47.684;10.806;2022-12-17T05:13:47;93440.50;;;-5.12;100.00
16738;BME280;17906;47.684;10.806;2022-12-17T05:16:32;93447.75;;;-5.14;100.00
16738;BME280;17906;47.684;10.806;2022-12-17T05:19:16;93458.38;;;-5.24;100.00
16738;BME280;17906;47.684;10.806;2022-12-17T05:22:01;93461.31;;;-5.27;100.00
16738;BME280;17906;47.684;10.806;2022-12-17T05:24:45;93468.41;;;-5.28;100.00
16738;BME280;17906;47.684;10.806;2022-12-17T05:27:29;93469.88;;;-5.15;100.00
16738;BME280;17906;47.684;10.806;2022-12-17T05:30:14;93469.78;;;-5.24;100.00
16738;BME280;17906;47.684;10.806;2022-12-17T05:33:00;93467.88;;;-5.31;100.00
16738;BME280;17906;47.684;10.806;2022-12-17T05:35:44;93466.66;;;-5.37;100.00
16738;BME280;17906;47.684;10.806;2022-12-17T05:38:44;93472.50;;;-5.33;100.00
16738;BME280;17906;47.684;10.806;2022-12-17T05:41:27;93486.16;;;-5.47;100.00
16738;BME280;17906;47.684;10.806;2022-12-17T05:44:12;93482.97;;;-5.41;100.00
16738;BME280;17906;47.684;10.806;2022-12-17T05:46:56;93491.31;;;-5.46;100.00
16738;BME280;17906;47.684;10.806;2022-12-17T05:49:42;93499.63;;;-5.41;100.00
16738;BME280;17906;47.684;10.806;2022-12-17T05:52:22;93489.22;;;-5.42;100.00
16738;BME280;17906;47.684;10.806;2022-12-17T05:55:07;93495.22;;;-5.50;100.00
16738;BME280;17906;47.684;10.806;2022-12-17T05:57:51;93493.44;;;-5.59;100.00
16738;BME280;17906;47.684;10.806;2022-12-17T06:00:35;93496.81;;;-5.67;100.00
16738;BME280;17906;47.684;10.806;2022-12-17T06:03:19;93499.59;;;-5.68;100.00
16738;BME280;17906;47.684;10.806;2022-12-17T06:06:05;93500.16;;;-5.65;100.00
16738;BME280;17906;47.684;10.806;2022-12-17T06:08:49;93503.63;;;-5.64;100.00
16738;BME280;17906;47.684;10.806;2022-12-17T06:11:34;93509.19;;;-5.67;100.00
16738;BME280;17906;47.684;10.806;2022-12-17T06:14:17;93518.78;;;-5.66;100.00
16738;BME280;17906;47.684;10.806;2022-12-17T06:17:02;93511.81;;;-5.67;100.00
16738;BME280;17906;47.684;10.806;2022-12-17T06:19:46;93512.13;;;-5.70;100.00
16738;BME280;17906;47.684;10.806;2022-12-17T06:22:32;93517.81;;;-5.65;100.00
16738;BME280;17906;47.684;10.806;2022-12-17T06:25:16;93526.97;;;-5.69;100.00
16738;BME280;17906;47.684;10.806;2022-12-17T06:28:01;93530.63;;;-5.80;100.00
16738;BME280;17906;47.684;10.806;2022-12-17T06:30:49;93528.53;;;-5.76;100.00
16738;BME280;17906;47.684;10.806;2022-12-17T06:33:33;93521.69;;;-5.69;100.00
16738;BME280;17906;47.684;10.806;2022-12-17T06:36:32;93534.22;;;-5.71;100.00
16738;BME280;17906;47.684;10.806;2022-12-17T06:39:16;93538.13;;;-5.75;100.00
16738;BME280;17906;47.684;10.806;2022-12-17T06:42:01;93531.56;;;-5.71;100.00
16738;BME280;17906;47.684;10.806;2022-12-17T06:44:45;93541.59;;;-5.75;100.00
16738;BME280;17906;47.684;10.806;2022-12-17T06:47:29;93546.47;;;-5.80;100.00
16738;BME280;17906;47.684;10.806;2022-12-17T06:50:13;93544.81;;;-5.91;100.00
16738;BME280;17906;47.684;10.806;2022-12-17T06:52:59;93554.53;;;-5.82;100.00
16738;BME280;17906;47.684;10.806;2022-12-17T06:55:45;93550.09;;;-5.91;100.00
16738;BME280;17906;47.684;10.806;2022-12-17T06:58:29;93552.59;;;-5.89;100.00
16738;BME280;17906;47.684;10.806;2022-12-17T07:01:13;93560.63;;;-5.81;100.00
16738;BME280;17906;47.684;10.806;2022-12-17T07:03:57;93568.84;;;-5.94;100.00
16738;BME280;17906;47.684;10.806;2022-12-17T07:06:42;93570.53;;;-6.02;100.00
16738;BME280;17906;47.684;10.806;2022-12-17T07:09:45;93580.69;;;-6.17;100.00
16738;BME280;17906;47.684;10.806;2022-12-17T07:12:30;93576.25;;;-6.17;100.00
16738;BME280;17906;47.684;10.806;2022-12-17T07:15:14;93576.94;;;-6.15;100.00
16738;BME280;17906;47.684;10.806;2022-12-17T07:17:59;93582.66;;;-6.19;100.00
16738;BME280;17906;47.684;10.806;2022-12-17T07:20:44;93577.63;;;-6.22;100.00
16738;BME280;17906;47.684;10.806;2022-12-17T07:23:29;93583.31;;;-6.07;100.00
16738;BME280;17906;47.684;10.806;2022-12-17T07:26:14;93585.97;;;-6.07;100.00
16738;BME280;17906;47.684;10.806;2022-12-17T07:28:59;93593.19;;;-6.10;100.00
16738;BME280;17906;47.684;10.806;2022-12-17T07:31:43;93590.13;;;-6.05;100.00
16738;BME280;17906;47.684;10.806;2022-12-17T07:34:27;93592.63;;;-6.03;100.00
16738;BME280;17906;47.684;10.806;2022-12-17T07:37:11;93603.84;;;-5.92;100.00
16738;BME280;17906;47.684;10.806;2022-12-17T07:39:56;93606.63;;;-6.03;100.00
16738;BME280;17906;47.684;10.806;2022-12-17T07:42:41;93605.25;;;-6.07;100.00
16738;BME280;17906;47.684;10.806;2022-12-17T07:45:25;93609.00;;;-6.00;100.00
16738;BME280;17906;47.684;10.806;2022-12-17T07:48:10;93608.59;;;-6.15;100.00
16738;BME280;17906;47.684;10.806;2022-12-17T07:50:54;93606.38;;;-6.19;100.00
16738;BME280;17906;47.684;10.806;2022-12-17T07:53:38;93612.34;;;-6.17;100.00
16738;BME280;17906;47.684;10.806;2022-12-17T07:56:23;93614.16;;;-6.08;100.00
16738;BME280;17906;47.684;10.806;2022-12-17T07:59:08;93614.16;;;-6.08;100.00
16738;BME280;17906;47.684;10.806;2022-12-17T08:01:55;93624.56;;;-6.16;100.00
16738;BME280;17906;47.684;10.806;2022-12-17T08:04:40;93618.03;;;-6.22;100.00
16738;BME280;17906;47.684;10.806;2022-12-17T08:07:25;93627.34;;;-6.18;100.00
16738;BME280;17906;47.684;10.806;2022-12-17T08:10:09;93626.38;;;-6.07;100.00
16738;BME280;17906;47.684;10.806;2022-12-17T08:13:08;93630.53;;;-6.04;100.00
16738;BME280;17906;47.684;10.806;2022-12-17T08:15:54;93627.47;;;-6.00;99.69
16738;BME280;17906;47.684;10.806;2022-12-17T08:18:38;93636.34;;;-5.91;99.06
16738;BME280;17906;47.684;10.806;2022-12-17T08:21:22;93644.13;;;-5.90;98.91
16738;BME280;17906;47.684;10.806;2022-12-17T08:24:06;93645.69;;;-6.06;99.26
16738;BME280;17906;47.684;10.806;2022-12-17T08:26:50;93637.31;;;-6.21;99.98
16738;BME280;17906;47.684;10.806;2022-12-17T08:29:34;93637.91;;;-6.08;99.42
16738;BME280;17906;47.684;10.806;2022-12-17T08:32:20;93647.63;;;-6.08;98.74
16738;BME280;17906;47.684;10.806;2022-12-17T08:35:05;93656.38;;;-5.98;98.12
16738;BME280;17906;47.684;10.806;2022-12-17T08:37:49;93652.34;;;-5.83;96.94
16738;BME280;17906;47.684;10.806;2022-12-17T08:40:33;93652.88;;;-5.80;96.80
16738;BME280;17906;47.684;10.806;2022-12-17T08:43:17;93676.53;;;-5.88;96.38
16738;BME280;17906;47.684;10.806;2022-12-17T08:46:02;93674.81;;;-5.89;96.84
16738;BME280;17906;47.684;10.806;2022-12-17T08:48:47;93669.28;;;-5.95;95.95
16738;BME280;17906;47.684;10.806;2022-12-17T08:51:32;93679.69;;;-5.84;96.09
16738;BME280;17906;47.684;10.806;2022-12-17T08:54:16;93681.09;;;-5.80;95.84
16738;BME280;17906;47.684;10.806;2022-12-17T08:57:00;93685.81;;;-5.74;94.16
16738;BME280;17906;47.684;10.806;2022-12-17T08:59:44;93687.34;;;-5.91;94.49
16738;BME280;17906;47.684;10.806;2022-12-17T09:02:29;93690.13;;;-5.92;95.58
16738;BME280;17906;47.684;10.806;2022-12-17T09:05:14;93692.59;;;-5.91;95.21
16738;BME280;17906;47.684;10.806;2022-12-17T09:07:59;93696.38;;;-5.93;95.22
16738;BME280;17906;47.684;10.806;2022-12-17T09:10:43;93685.25;;;-5.77;95.14
16738;BME280;17906;47.684;10.806;2022-12-17T09:13:28;93697.22;;;-5.83;94.63
16738;BME280;17906;47.684;10.806;2022-12-17T09:16:12;93698.44;;;-5.77;93.72
16738;BME280;17906;47.684;10.806;2022-12-17T09:18:56;93701.66;;;-5.55;93.33
16738;BME280;17906;47.684;10.806;2022-12-17T09:21:42;93696.53;;;-5.66;92.85
16738;BME280;17906;47.684;10.806;2022-12-17T09:24:27;93704.75;;;-5.12;92.03
16738;BME280;17906;47.684;10.806;2022-12-17T09:27:11;93713.06;;;-4.88;89.21
16738;BME280;17906;47.684;10.806;2022-12-17T09:29:55;93705.22;;;-4.43;86.65
16738;BME280;17906;47.684;10.806;2022-12-17T09:32:40;93711.50;;;-3.98;83.46
16738;BME280;17906;47.684;10.806;2022-12-17T09:35:24;93713.84;;;-4.13;83.02
16738;BME280;17906;47.684;10.806;2022-12-17T09:38:12;93709.38;;;-4.40;83.69
16738;BME280;17906;47.684;10.806;2022-12-17T09:41:01;93710.75;;;-4.64;85.79
16738;BME280;17906;47.684;10.806;2022-12-17T09:43:52;93715.13;;;-4.45;85.79
16738;BME280;17906;47.684;10.806;2022-12-17T09:46:45;93715.41;;;-4.48;86.10
16738;BME280;17906;47.684;10.806;2022-12-17T09:49:32;93709.06;;;-4.65;86.33
16738;BME280;17906;47.684;10.806;2022-12-17T09:52:21;93719.31;;;-4.52;87.32
16738;BME280;17906;47.684;10.806;2022-12-17T09:55:17;93723.28;;;-4.38;85.08
16738;BME280;17906;47.684;10.806;2022-12-17T09:58:03;93733.97;;;-4.02;85.71
16738;BME280;17906;47.684;10.806;2022-12-17T10:00:48;93732.22;;;-4.12;86.54
16738;BME280;17906;47.684;10.806;2022-12-17T10:03:32;93729.97;;;-4.34;86.53
16738;BME280;17906;47.684;10.806;2022-12-17T10:06:21;93735.22;;;-4.24;87.04
16738;BME280;17906;47.684;10.806;2022-12-17T10:09:11;93749.91;;;-4.40;87.87
16738;BME280;17906;47.684;10.806;2022-12-17T10:11:58;93743.00;;;-4.60;90.84
16738;BME280;17906;47.684;10.806;2022-12-17T10:14:45;93742.22;;;-4.70;90.53
16738;BME280;17906;47.684;10.806;2022-12-17T10:17:30;93741.09;;;-4.58;90.30
16738;BME280;17906;47.684;10.806;2022-12-17T10:20:20;93742.97;;;-4.50;90.79
16738;BME280;17906;47.684;10.806;2022-12-17T10:23:04;93747.22;;;-4.67;90.18
16738;BME280;17906;47.684;10.806;2022-12-17T10:25:50;93753.34;;;-4.67;91.22
16738;BME280;17906;47.684;10.806;2022-12-17T10:28:35;93747.50;;;-4.70;91.08
16738;BME280;17906;47.684;10.806;2022-12-17T10:31:21;93742.25;;;-4.43;89.50
16738;BME280;17906;47.684;10.806;2022-12-17T10:34:06;93747.75;;;-4.54;89.23
16738;BME280;17906;47.684;10.806;2022-12-17T10:36:51;93747.44;;;-4.51;89.23
16738;BME280;17906;47.684;10.806;2022-12-17T10:39:37;93754.41;;;-4.50;89.88
16738;BME280;17906;47.684;10.806;2022-12-17T10:42:23;93751.03;;;-4.42;90.59
16738;BME280;17906;47.684;10.806;2022-12-17T10:45:24;93746.38;;;-4.30;90.32
16738;BME280;17906;47.684;10.806;2022-12-17T10:48:18;93752.16;;;-4.45;92.38
16738;BME280;17906;47.684;10.806;2022-12-17T10:51:03;93754.34;;;-4.40;91.29
16738;BME280;17906;47.684;10.806;2022-12-17T10:53:49;93757.31;;;-4.16;90.18
16738;BME280;17906;47.684;10.806;2022-12-17T10:56:34;93754.81;;;-4.17;89.37
16738;BME280;17906;47.684;10.806;2022-12-17T10:59:29;93741.41;;;-4.16;88.23
16738;BME280;17906;47.684;10.806;2022-12-17T11:02:19;93751.22;;;-3.98;88.04
16738;BME280;17906;47.684;10.806;2022-12-17T11:05:12;93747.44;;;-3.96;88.25
16738;BME280;17906;47.684;10.806;2022-12-17T11:07:59;93745.47;;;-4.12;88.61
16738;BME280;17906;47.684;10.806;2022-12-17T11:10:46;93732.84;;;-3.82;88.14
16738;BME280;17906;47.684;10.806;2022-12-17T11:13:32;93733.13;;;-3.58;85.23
16738;BME280;17906;47.684;10.806;2022-12-17T11:16:20;93737.09;;;-3.89;87.60
16738;BME280;17906;47.684;10.806;2022-12-17T11:19:25;93722.97;;;-3.80;87.49
16738;BME280;17906;47.684;10.806;2022-12-17T11:22:18;93731.97;;;-3.55;86.04
16738;BME280;17906;47.684;10.806;2022-12-17T11:25:09;93730.84;;;-3.35;84.57
16738;BME280;17906;47.684;10.806;2022-12-17T11:28:11;93728.16;;;-3.17;82.61
16738;BME280;17906;47.684;10.806;2022-12-17T11:31:14;93735.22;;;-3.26;85.32
16738;BME280;17906;47.684;10.806;2022-12-17T11:34:08;93726.81;;;-3.21;83.91
16738;BME280;17906;47.684;10.806;2022-12-17T11:37:03;93712.75;;;-2.96;83.70
16738;BME280;17906;47.684;10.806;2022-12-17T11:39:59;93715.13;;;-2.84;84.47
16738;BME280;17906;47.684;10.806;2022-12-17T11:42:48;93715.25;;;-2.94;84.38
16738;BME280;17906;47.684;10.806;2022-12-17T11:45:41;93714.13;;;-3.09;83.53
16738;BME280;17906;47.684;10.806;2022-12-17T11:48:33;93713.13;;;-3.16;83.58
16738;BME280;17906;47.684;10.806;2022-12-17T11:51:23;93721.66;;;-3.40;84.27
16738;BME280;17906;47.684;10.806;2022-12-17T11:54:19;93713.88;;;-3.24;84.51
16738;BME280;17906;47.684;10.806;2022-12-17T11:57:13;93708.41;;;-3.23;85.57
16738;BME280;17906;47.684;10.806;2022-12-17T12:00:03;93719.63;;;-3.29;85.11
16738;BME280;17906;47.684;10.806;2022-12-17T12:02:53;93720.16;;;-3.25;84.85
16738;BME280;17906;47.684;10.806;2022-12-17T12:05:46;93723.97;;;-3.45;85.82
16738;BME280;17906;47.684;10.806;2022-12-17T12:08:34;93726.38;;;-3.34;85.56
16738;BME280;17906;47.684;10.806;2022-12-17T12:11:26;93728.50;;;-3.56;86.85
16738;BME280;17906;47.684;10.806;2022-12-17T12:14:20;93732.72;;;-3.63;86.79
16738;BME280;17906;47.684;10.806;2022-12-17T12:17:22;93735.50;;;-3.82;87.87
16738;BME280;17906;47.684;10.806;2022-12-17T12:20:23;93723.34;;;-3.75;86.60
16738;BME280;17906;47.684;10.806;2022-12-17T12:23:18;93735.31;;;-3.71;87.79
16738;BME280;17906;47.684;10.806;2022-12-17T12:26:13;93729.03;;;-3.70;87.61
16738;BME280;17906;47.684;10.806;2022-12-17T12:29:05;93737.09;;;-3.89;87.63
16738;BME280;17906;47.684;10.806;2022-12-17T12:32:03;93732.38;;;-3.95;87.80
16738;BME280;17906;47.684;10.806;2022-12-17T12:34:51;93750.97;;;-4.05;87.89
16738;BME280;17906;47.684;10.806;2022-12-17T12:37:37;93748.22;;;-4.03;88.62
16738;BME280;17906;47.684;10.806;2022-12-17T12:40:41;93747.84;;;-4.18;89.33
16738;BME280;17906;47.684;10.806;2022-12-17T12:43:31;93745.34;;;-3.92;87.43
16738;BME280;17906;47.684;10.806;2022-12-17T12:46:20;93747.69;;;-3.89;86.78
16738;BME280;17906;47.684;10.806;2022-12-17T12:49:15;93758.22;;;-3.80;86.87
16738;BME280;17906;47.684;10.806;2022-12-17T12:52:02;93754.59;;;-3.79;86.29
16738;BME280;17906;47.684;10.806;2022-12-17T12:54:51;93753.56;;;-3.95;88.03
16738;BME280;17906;47.684;10.806;2022-12-17T12:57:37;93748.16;;;-3.76;87.32
16738;BME280;17906;47.684;10.806;2022-12-17T13:00:30;93746.28;;;-3.66;86.56
16738;BME280;17906;47.684;10.806;2022-12-17T13:03:26;93756.91;;;-3.93;86.69
16738;BME280;17906;47.684;10.806;2022-12-17T13:06:13;93760.47;;;-4.02;88.98
16738;BME280;17906;47.684;10.806;2022-12-17T13:08:41;93755.84;;;-4.28;88.70
16738;BME280;17906;47.684;10.806;2022-12-17T13:11:11;93756.78;;;-4.19;89.17
16738;BME280;17906;47.684;10.806;2022-12-17T13:13:41;93753.25;;;-4.10;90.12
16738;BME280;17906;47.684;10.806;2022-12-17T13:16:28;93746.59;;;-4.14;89.29
16738;BME280;17906;47.684;10.806;2022-12-17T13:19:03;93746.34;;;-4.21;90.11
16738;BME280;17906;47.684;10.806;2022-12-17T13:21:30;93753.66;;;-4.15;89.01
16738;BME280;17906;47.684;10.806;2022-12-17T13:23:56;93750.66;;;-4.20;90.03
16738;BME280;17906;47.684;10.806;2022-12-17T13:26:29;93765.81;;;-4.49;90.77
16738;BME280;17906;47.684;10.806;2022-12-17T13:29:18;93765.72;;;-4.57;91.69
16738;BME280;17906;47.684;10.806;2022-12-17T13:31:53;93764.81;;;-4.48;90.20
16738;BME280;17906;47.684;10.806;2022-12-17T13:34:34;93770.19;;;-4.30;90.11
16738;BME280;17906;47.684;10.806;2022-12-17T13:37:08;93775.91;;;-4.25;90.50
16738;BME280;17906;47.684;10.806;2022-12-17T13:39:44;93768.13;;;-4.37;90.52
16738;BME280;17906;47.684;10.806;2022-12-17T13:42:17;93770.94;;;-4.11;90.28
16738;BME280;17906;47.684;10.806;2022-12-17T13:44:45;93774.13;;;-4.07;89.92
16738;BME280;17906;47.684;10.806;2022-12-17T13:47:20;93774.34;;;-4.28;92.51
16738;BME280;17906;47.684;10.806;2022-12-17T13:49:51;93783.69;;;-4.24;91.34
16738;BME280;17906;47.684;10.806;2022-12-17T13:52:20;93791.91;;;-4.27;89.61
16738;BME280;17906;47.684;10.806;2022-12-17T13:54:48;93785.63;;;-4.26;91.30
16738;BME280;17906;47.684;10.806;2022-12-17T13:57:17;93791.94;;;-4.37;91.74
16738;BME280;17906;47.684;10.806;2022-12-17T13:59:48;93808.75;;;-4.65;91.02
16738;BME280;17906;47.684;10.806;2022-12-17T14:02:23;93795.84;;;-4.87;92.13
16738;BME280;17906;47.684;10.806;2022-12-17T14:04:53;93795.72;;;-4.96;91.02
16738;BME280;17906;47.684;10.806;2022-12-17T14:07:20;93801.03;;;-5.25;92.94
16738;BME280;17906;47.684;10.806;2022-12-17T14:09:47;93799.06;;;-5.03;93.94
16738;BME280;17906;47.684;10.806;2022-12-17T14:12:16;93801.00;;;-5.05;92.57
16738;BME280;17906;47.684;10.806;2022-12-17T14:14:53;93803.94;;;-5.08;92.50
16738;BME280;17906;47.684;10.806;2022-12-17T14:17:23;93801.28;;;-4.99;93.55
16738;BME280;17906;47.684;10.806;2022-12-17T14:19:57;93809.06;;;-4.97;92.82
16738;BME280;17906;47.684;10.806;2022-12-17T14:22:30;93809.91;;;-5.06;92.91